Flight Track Log - Related Links

Times and Time Zones

All times are in EDT time to prevent confusion due to time zone crossing. See the EJA982 flight status page for this flight to view local times or setup timezone preferences in your user account.

Time Position Orientation Groundspeed Altitude Reporting Facility
EDT Latitude Longitude Course Direction KTS MPH feet Rate Location/Type
Mon 09:52:33 AM 30.4789 -84.2086 88° East 283 326 9,800  Level Jacksonville Center
Mon 09:53:33 AM 30.4844 -84.0808 87° East 336 387 10,700 1,500 Climbing Jacksonville Center
Mon 09:54:33 AM 30.4875 -83.9508 88° East 372 428 12,800 2,000 Climbing Jacksonville Center
Mon 09:55:33 AM 30.4886 -83.8231 89° East 388 447 14,700 2,000 Climbing Jacksonville Center
Mon 09:56:00 AM 30.4500 -83.3191 90° East  Level FlightAware Approximate
Mon 09:56:33 AM 30.4894 -83.6931 90° East 401 461 16,800  Level Jacksonville Center
Mon 09:57:00 AM 30.4624 -83.1468 84° East  Level FlightAware Approximate
Mon 09:57:33 AM 30.4922 -83.5628 89° East 401 461 18,600  Level Jacksonville Center
Mon 09:58:33 AM 30.4950 -83.4325 89° East 401 461 20,600 2,000 Climbing Jacksonville Center
Mon 09:59:33 AM 30.4975 -83.3047 89° East 401 461 22,600 1,884 Climbing Jacksonville Center
Mon 10:00:34 AM 30.4981 -83.1769 90° East 401 461 24,400 1,800 Climbing Jacksonville Center
Mon 10:01:33 AM 30.5503 -83.0711 60° Northeast 372 428 26,200 1,866 Climbing Jacksonville Center
Mon 10:02:33 AM 30.6403 -82.9939 36° Northeast 367 422 28,100 1,950 Climbing Jacksonville Center
Mon 10:03:33 AM 30.7239 -82.9192 38° Northeast 367 422 30,100 2,000 Climbing Jacksonville Center
Mon 10:04:33 AM 30.8114 -82.8467 35° Northeast 375 432 32,100 2,050 Climbing Jacksonville Center
Mon 10:05:33 AM 30.9011 -82.7692 37° Northeast 388 447 34,200 1,550 Climbing Jacksonville Center
Mon 10:06:33 AM 30.9908 -82.6889 37° Northeast 393 452 35,200 700 Climbing Jacksonville Center
Mon 10:07:33 AM 31.0764 -82.6161 36° Northeast 398 458 35,600 650 Climbing Jacksonville Center
Mon 10:08:33 AM 31.1783 -82.5283 36° Northeast 428 493 36,500 950 Climbing Jacksonville Center
Mon 10:09:33 AM 31.2825 -82.4356 37° Northeast 452 520 37,500 1,250 Climbing Jacksonville Center
Mon 10:10:33 AM 31.3886 -82.3400 38° Northeast 466 536 39,000 1,450 Climbing Jacksonville Center
Mon 10:11:33 AM 31.4925 -82.2519 36° Northeast 472 543 40,400 1,000 Climbing Jacksonville Center
Mon 10:12:33 AM 31.5944 -82.1633 37° Northeast 457 526 41,000 300 Climbing Jacksonville Center
Mon 10:13:33 AM 31.6942 -82.0697 39° Northeast 465 535 41,000  Level Jacksonville Center
Mon 10:14:33 AM 31.8103 -81.9586 39° Northeast 477 549 41,000  Level Jacksonville Center
Mon 10:15:33 AM 31.8992 -81.8647 42° Northeast 482 555 41,000  Level Jacksonville Center
Mon 10:16:33 AM 32.0111 -81.7508 41° Northeast 482 555 41,000  Level Jacksonville Center
Mon 10:17:33 AM 32.1125 -81.6442 42° Northeast 482 555 41,000  Level Jacksonville Center
Mon 10:18:33 AM 32.2053 -81.5494 41° Northeast 482 555 41,000  Level Jacksonville Center
Mon 10:19:33 AM 32.3189 -81.4322 41° Northeast 482 555 41,000  Level Jacksonville Center
Mon 10:20:33 AM 32.4178 -81.3200 44° Northeast 482 555 41,000  Level Jacksonville Center
Mon 10:21:33 AM 32.5250 -81.2122 40° Northeast 489 563 41,000  Level Jacksonville Center
Mon 10:22:33 AM 32.6153 -81.1144 42° Northeast 495 570 41,000  Level Jacksonville Center
Mon 10:23:33 AM 32.7264 -80.9936 42° Northeast 489 563 41,000  Level Jacksonville Center
Mon 10:24:33 AM 32.8311 -80.8803 42° Northeast 494 568 41,000  Level Jacksonville Center
Mon 10:25:33 AM 32.9378 -80.7689 41° Northeast 494 568 41,000  Level Jacksonville Center
Mon 10:26:33 AM 33.0422 -80.6550 42° Northeast 499 574 41,000  Level Jacksonville Center
Mon 10:27:33 AM 33.1489 -80.5431 41° Northeast 505 581 41,000  Level Jacksonville Center
Mon 10:28:33 AM 33.2594 -80.4283 41° Northeast 511 588 41,000  Level Jacksonville Center
Mon 10:29:33 AM 33.3656 -80.3086 43° Northeast 511 588 41,000  Level Jacksonville Center
Mon 10:30:33 AM 33.4572 -80.2039 44° Northeast 511 588 41,000  Level Jacksonville Center
Mon 10:31:33 AM 33.5653 -80.0858 42° Northeast 511 588 41,000  Level Jacksonville Center
Mon 10:32:33 AM 33.6711 -79.9653 43° Northeast 511 588 41,000  Level Jacksonville Center
Mon 10:33:33 AM 33.7769 -79.8517 42° Northeast 511 588 41,000  Level Jacksonville Center
Mon 10:34:33 AM 33.8822 -79.7306 44° Northeast 517 595 41,000  Level Jacksonville Center
Mon 10:35:33 AM 33.9919 -79.6114 42° Northeast 517 595 41,000  Level Jacksonville Center
Mon 10:37:25 AM 34.1800 -79.3975 43° Northeast 514 592 41,000  Level Washington Center
Mon 10:38:25 AM 34.2906 -79.2719 43° Northeast 522 601 41,000  Level Washington Center
Mon 10:39:25 AM 34.3964 -79.1508 43° Northeast 529 609 41,000  Level Washington Center
Mon 10:40:26 AM 34.5150 -79.0222 42° Northeast 529 609 41,000  Level Washington Center
Mon 10:41:24 AM 34.6119 -78.9053 45° Northeast 529 609 41,000  Level Washington Center
Mon 10:42:25 AM 34.7219 -78.7808 43° Northeast 524 603 41,000  Level Washington Center
Mon 10:43:25 AM 34.8314 -78.6586 42° Northeast 530 610 41,000  Level Washington Center
Mon 10:44:26 AM 34.9369 -78.5333 44° Northeast 530 610 41,000  Level Washington Center
Mon 10:45:26 AM 35.0442 -78.4081 44° Northeast 530 610 41,000  Level Washington Center
Mon 10:46:24 AM 35.1556 -78.2797 43° Northeast 530 610 41,000  Level Washington Center
Mon 10:47:25 AM 35.2669 -78.1511 43° Northeast 530 610 41,000  Level Washington Center
Mon 10:48:25 AM 35.3761 -78.0247 43° Northeast 535 616 41,000  Level Washington Center
Mon 10:49:25 AM 35.4872 -77.8931 44° Northeast 540 621 41,000  Level Washington Center
Mon 10:50:26 AM 35.5958 -77.7658 44° Northeast 540 621 41,000  Level Washington Center
Mon 10:51:26 AM 35.7067 -77.6383 43° Northeast 540 621 41,000  Level Washington Center
Mon 10:52:24 AM 35.8300 -77.4903 44° Northeast 545 627 41,000  Level Washington Center
Mon 10:53:25 AM 35.9406 -77.3622 43° Northeast 540 621 41,000  Level Washington Center
Mon 10:54:26 AM 36.0511 -77.2286 44° Northeast 540 621 41,000  Level Washington Center
Mon 10:55:24 AM 36.1444 -77.1122 45° Northeast 540 621 41,000  Level Washington Center
Mon 10:56:24 AM 36.2544 -76.9778 45° Northeast 534 615 41,000  Level Washington Center
Mon 10:57:26 AM 36.3644 -76.8481 44° Northeast 539 620 41,000  Level Washington Center
Mon 10:58:24 AM 36.4764 -76.7131 44° Northeast 539 620 41,000  Level Washington Center
Mon 10:59:24 AM 36.5858 -76.5800 44° Northeast 539 620 41,000  Level Washington Center
Mon 11:00:25 AM 36.6975 -76.4442 44° Northeast 539 620 41,000  Level Washington Center
Mon 11:01:26 AM 36.8050 -76.3028 46° Northeast 544 626 41,000  Level Washington Center
Mon 11:02:24 AM 36.9244 -76.1792 40° Northeast 544 626 41,000  Level Washington Center
Mon 11:03:25 AM 37.0750 -76.1100 20° North 549 632 41,000  Level Washington Center
Mon 11:04:26 AM 37.2275 -76.0250 24° Northeast 543 625 41,000  Level Washington Center
Mon 11:05:26 AM 37.3697 -75.9447 24° Northeast 544 626 41,000 -51 Level Washington Center
Mon 11:06:24 AM 37.4950 -75.8328 35° Northeast 544 626 40,900  Descending Washington Center
Mon 11:07:25 AM 37.6183 -75.7150 37° Northeast 549 632 41,000 50 Climbing Washington Center
Mon 11:08:25 AM 37.7436 -75.5969 37° Northeast 549 632 41,000  Level Washington Center
Mon 11:09:24 AM 37.8644 -75.4761 38° Northeast 554 638 41,000  Level Washington Center
Mon 11:10:25 AM 37.9894 -75.3547 37° Northeast 559 643 41,000  Level Washington Center
Mon 11:11:26 AM 38.1142 -75.2328 38° Northeast 559 643 41,000  Level Washington Center
Mon 11:12:24 AM 38.2367 -75.1053 39° Northeast 559 643 41,000  Level Washington Center
Mon 11:13:24 AM 38.3614 -74.9881 36° Northeast 564 649 41,000  Level Washington Center
Mon 11:14:24 AM 38.4878 -74.8703 36° Northeast 564 649 41,000  Level Washington Center
Mon 11:15:25 AM 38.6119 -74.7389 40° Northeast 564 649 41,000  Level Washington Center
Mon 11:16:25 AM 38.7342 -74.6150 38° Northeast 564 649 41,000  Level Washington Center
Mon 11:17:23 AM 38.8375 -74.5150 37° Northeast 564 649 41,000  Level Washington Center
Mon 11:18:25 AM 38.9694 -74.3689 41° Northeast 564 649 41,000  Level Washington Center
Mon 11:19:25 AM 39.0975 -74.2489 36° Northeast 564 649 41,000  Level Washington Center
Mon 11:21:12 AM 39.3136 -74.0244 39° Northeast 555 639 41,000  Level Boston Center
Mon 11:22:12 AM 39.4364 -73.8931 40° Northeast 560 644 41,000  Level Boston Center
Mon 11:23:22 AM 39.5647 -73.7719 36° Northeast 565 650 41,000  Level Boston Center
Mon 11:24:22 AM 39.7125 -73.6106 40° Northeast 575 662 41,000  Level Boston Center
Mon 11:25:23 AM 39.8344 -73.4803 39° Northeast 575 662 41,000  Level Boston Center
Mon 11:26:23 AM 39.9628 -73.3578 36° Northeast 570 656 41,000  Level Boston Center
Mon 11:27:24 AM 40.0908 -73.2375 36° Northeast 570 656 41,000  Level Boston Center
Mon 11:28:24 AM 40.2208 -73.1114 37° Northeast 570 656 41,000  Level Boston Center
Mon 11:29:24 AM 40.3486 -72.9900 36° Northeast 576 663 41,000  Level Boston Center
Mon 11:30:22 AM 40.4825 -72.8603 36° Northeast 576 663 41,000  Level Boston Center
Mon 11:31:23 AM 40.6078 -72.7353 37° Northeast 576 663 41,000  Level Boston Center
Mon 11:32:23 AM 40.7331 -72.6017 39° Northeast 576 663 41,000  Level Boston Center
Mon 11:33:23 AM 40.8708 -72.4675 36° Northeast 591 680 41,000  Level Boston Center
Mon 11:34:24 AM 41.0042 -72.3467 34° Northeast 597 687 41,000  Level Boston Center
Mon 11:35:24 AM 41.1331 -72.2225 36° Northeast 586 674 41,000  Level Boston Center
Mon 11:36:26 AM 41.2767 -72.0894 35° Northeast 580 667 41,000  Level Boston Center
Mon 11:37:23 AM 41.3950 -71.9697 37° Northeast 574 661 41,000  Level Boston Center
Mon 11:38:24 AM 41.5339 -71.8300 37° Northeast 574 661 41,000  Level Boston Center
Mon 11:39:24 AM 41.6375 -71.7233 38° Northeast 574 661 41,000  Level Boston Center
Mon 11:40:25 AM 41.7719 -71.5883 37° Northeast 574 661 41,000 -1,017 Level Boston Center
Mon 11:41:22 AM 41.9003 -71.4667 35° Northeast 512 589 39,000 -1,026 Descending Boston Center
Mon 11:42:22 AM 42.0611 -71.3019 37° Northeast 564 649 39,000  Level Boston Center
Mon 11:43:23 AM 42.1994 -71.1594 37° Northeast 600 690 39,000  Level Boston Center
Mon 11:44:24 AM 42.3331 -71.0217 37° Northeast 605 696 39,000  Level Boston Center
Mon 11:45:22 AM 42.4628 -70.8808 39° Northeast 611 703 39,000 -706 Level Boston Center
Mon 11:46:23 AM 42.5817 -70.7567 38° Northeast 606 697 37,600 -2,164 Descending Boston Center
Mon 11:47:24 AM 42.7169 -70.6089 39° Northeast 606 697 34,600 -3,223 Descending Boston Center
Mon 11:48:24 AM 42.8542 -70.4575 39° Northeast 611 703 31,100 -3,400 Descending Boston Center
Mon 11:49:24 AM 42.9808 -70.3172 39° Northeast 604 695 27,800 -3,254 Descending Boston Center
Mon 11:50:22 AM 43.1033 -70.1822 39° Northeast 582 670 24,700 -3,153 Descending Boston Center
Mon 11:51:22 AM 43.2153 -70.0525 40° Northeast 553 636 21,600 -3,074 Descending Boston Center
Mon 11:52:23 AM 43.3375 -69.9194 38° Northeast 512 589 18,500 -2,777 Descending Boston Center
Mon 11:53:23 AM 43.4433 -69.8033 39° Northeast 491 565 16,000 -2,628 Descending Boston Center
Mon 11:54:24 AM 43.5386 -69.6961 39° Northeast 452 520 13,200 -2,777 Descending Boston Center
Mon 11:55:24 AM 43.6319 -69.5886 40° Northeast 447 514 10,400 -1,627 Descending Boston Center
Mon 11:56:22 AM 43.7253 -69.4894 38° Northeast 434 499 10,000 -458 Descending Boston Center
Mon 11:57:22 AM 43.8153 -69.4158 31° Northeast 405 466 9,500 -1,190 Descending Boston Center
Mon 11:58:23 AM 43.8953 -69.3686 23° Northeast 330 380 7,600 -2,213 Descending Boston Center
Mon 11:59:24 AM 43.9658 -69.3622 North 283 326 5,000 -1,785 Descending Boston Center
Mon 12:00:24 PM 44.0367 -69.3586 North 240 276 4,000 -1,068 Descending Boston Center
Mon 12:01:22 PM 44.0842 -69.3386 17° North 201 231 2,900 -763 Descending Boston Center
Mon 12:02:22 PM 44.1008 -69.2656 72° East 166 191 2,500 -744 Descending Boston Center
Mon 12:03:23 PM 44.0886 -69.1997 104° East 161 185 1,400 -677 Descending Boston Center
Mon 12:04:35 PM 44.0850 -69.1508 96° East 154 177 1,000 4,364 Descending Boston Center
Mon 12:05:35 PM 44.0831 -69.0814 92° East 154 177 11,000 4,511 Climbing Boston Center
Mon 12:06:48 PM 44.0811 -69.0122 92° East 154 177 11,000  Level Boston Center
Mon 12:08:00 PM 44.0601 -69.0993 251° West  Level Estimated
Mon 12:15:00 PM 44.0601 -69.0993 28° Northeast  Level Estimated
Mon 12:16:00 PM 44.0601 -69.0993 28° Northeast  Level Estimated
Mon 12:17:00 PM 44.0601 -69.0993 28° Northeast  Level Estimated
Mon 12:18:00 PM 44.0601 -69.0993 28° Northeast  Level Estimated
Mon 12:19:00 PM 44.0601 -69.0993 28° Northeast  Level Estimated
Mon 12:20:00 PM 44.0601 -69.0993 28° Northeast  Level Estimated

Login

Don't have an account? Register now (free) for customized features, flight alerts, and more!